Time,TemperatureF,DewpointF,PressureIn,WindDirection,WindDirectionDegrees,WindSpeedMPH,WindSpeedGustMPH,Humidity,HourlyPrecipIn,Conditions,Clouds,dailyrainin,SolarRadiationWatts/m^2,SoftwareType,DateUTC
2013-07-21 00:04:00,72.8,71.0,29.82,NNW,327,0.0,-999.0,93,-99.99,,,0.06,0,weatherlink.com 1.10,2013-07-21 04:04:00,
2013-07-21 00:19:00,72.3,70.0,29.82,NNW,327,0.0,-999.0,92,-99.99,,,0.06,0,weatherlink.com 1.10,2013-07-21 04:19:00,
2013-07-21 00:34:00,72.1,70.0,29.81,NNW,327,0.0,-999.0,93,-99.99,,,0.06,0,weatherlink.com 1.10,2013-07-21 04:34:00,
2013-07-21 00:49:00,71.7,70.0,29.81,NNW,327,0.0,-999.0,93,-99.99,,,0.06,0,weatherlink.com 1.10,2013-07-21 04:49:00,
2013-07-21 01:04:00,71.5,69.0,29.82,NNW,327,0.0,-999.0,93,-99.99,,,0.06,0,weatherlink.com 1.10,2013-07-21 05:04:00,
2013-07-21 01:19:00,71.2,69.0,29.82,NNW,327,0.0,-999.0,94,-99.99,,,0.06,0,weatherlink.com 1.10,2013-07-21 05:19:00,
2013-07-21 01:34:00,70.9,69.0,29.82,NNW,327,0.0,-999.0,94,-99.99,,,0.06,0,weatherlink.com 1.10,2013-07-21 05:34:00,
2013-07-21 01:49:00,70.7,69.0,29.83,NNW,327,0.0,-999.0,94,-99.99,,,0.06,0,weatherlink.com 1.10,2013-07-21 05:49:00,
2013-07-21 02:04:00,70.6,69.0,29.83,NNW,327,0.0,-999.0,95,-99.99,,,0.06,0,weatherlink.com 1.10,2013-07-21 06:04:00,
2013-07-21 02:19:00,70.5,69.0,29.83,NNW,327,0.0,-999.0,95,-99.99,,,0.06,0,weatherlink.com 1.10,2013-07-21 06:19:00,
2013-07-21 02:34:00,70.4,69.0,29.83,NNW,327,0.0,-999.0,95,-99.99,,,0.06,0,weatherlink.com 1.10,2013-07-21 06:34:00,
2013-07-21 02:49:00,70.5,69.0,29.83,NNW,327,0.0,-999.0,94,-99.99,,,0.00,0,weatherlink.com 1.10,2013-07-21 06:49:00,
2013-07-21 03:04:00,70.2,69.0,29.82,NNW,327,0.0,-999.0,94,-99.99,,,0.00,0,weatherlink.com 1.10,2013-07-21 07:04:00,
2013-07-21 03:19:00,70.0,68.0,29.82,NNW,327,0.0,-999.0,94,-99.99,,,0.00,0,weatherlink.com 1.10,2013-07-21 07:19:00,
2013-07-21 03:34:00,69.9,68.0,29.82,NNW,327,0.0,-999.0,94,-99.99,,,0.00,0,weatherlink.com 1.10,2013-07-21 07:34:00,
2013-07-21 03:49:00,69.9,68.0,29.83,NNW,327,0.0,-999.0,94,-99.99,,,0.00,0,weatherlink.com 1.10,2013-07-21 07:49:00,
2013-07-21 04:04:00,69.7,68.0,29.82,NNW,327,0.0,-999.0,94,-99.99,,,0.00,0,weatherlink.com 1.10,2013-07-21 08:04:00,
2013-07-21 04:19:00,69.5,68.0,29.82,NNW,327,0.0,-999.0,94,-99.99,,,0.00,0,weatherlink.com 1.10,2013-07-21 08:19:00,
2013-07-21 04:34:00,69.1,67.0,29.84,NNW,327,0.0,-999.0,94,-99.99,,,0.00,0,weatherlink.com 1.10,2013-07-21 08:34:00,
2013-07-21 04:49:00,68.9,67.0,29.84,NNW,327,0.0,-999.0,94,-99.99,,,0.00,0,weatherlink.com 1.10,2013-07-21 08:49:00,
2013-07-21 05:04:00,68.8,67.0,29.84,NNW,327,0.0,-999.0,94,-99.99,,,0.00,0,weatherlink.com 1.10,2013-07-21 09:04:00,
2013-07-21 05:19:00,68.8,67.0,29.85,NNW,327,0.0,-999.0,94,-99.99,,,0.00,0,weatherlink.com 1.10,2013-07-21 09:19:00,
2013-07-21 05:34:00,68.8,67.0,29.86,NNW,327,0.0,-999.0,94,-99.99,,,0.00,0,weatherlink.com 1.10,2013-07-21 09:34:00,
2013-07-21 05:49:00,68.6,67.0,29.87,South,178,0.0,-999.0,93,-99.99,,,0.00,0,weatherlink.com 1.10,2013-07-21 09:49:00,
2013-07-21 06:04:00,68.5,67.0,29.86,South,169,0.0,-999.0,93,-99.99,,,0.00,21,weatherlink.com 1.10,2013-07-21 10:04:00,
2013-07-21 06:19:00,68.7,67.0,29.86,South,169,0.0,-999.0,93,-99.99,,,0.00,40,weatherlink.com 1.10,2013-07-21 10:19:00,
2013-07-21 06:34:00,68.8,66.0,29.87,South,169,0.0,-999.0,92,-99.99,,,0.00,30,weatherlink.com 1.10,2013-07-21 10:34:00,
2013-07-21 06:49:00,69.2,67.0,29.87,South,169,0.0,-999.0,92,-99.99,,,0.00,47,weatherlink.com 1.10,2013-07-21 10:49:00,
2013-07-21 07:04:00,70.0,68.0,29.87,South,169,0.0,-999.0,93,-99.99,,,0.00,179,weatherlink.com 1.10,2013-07-21 11:04:00,
2013-07-21 07:19:00,71.3,67.0,29.88,South,169,0.0,-999.0,86,-99.99,,,0.00,213,weatherlink.com 1.10,2013-07-21 11:19:00,
2013-07-21 07:34:00,72.8,67.0,29.89,South,169,0.0,-999.0,83,-99.99,,,0.00,204,weatherlink.com 1.10,2013-07-21 11:34:00,
2013-07-21 07:49:00,72.8,67.0,29.89,South,169,0.0,-999.0,83,-99.99,,,0.00,107,weatherlink.com 1.10,2013-07-21 11:49:00,
2013-07-21 08:04:00,73.5,68.0,29.90,South,169,1.0,-999.0,82,-99.99,,,0.00,330,weatherlink.com 1.10,2013-07-21 12:04:00,
2013-07-21 08:19:00,73.8,67.0,29.90,SSE,163,0.0,-999.0,80,-99.99,,,0.00,172,weatherlink.com 1.10,2013-07-21 12:19:00,
2013-07-21 08:34:00,73.8,66.0,29.90,SSE,159,0.0,-999.0,77,-99.99,,,0.00,239,weatherlink.com 1.10,2013-07-21 12:34:00,
2013-07-21 08:49:00,74.9,67.0,29.90,NE,53,1.0,-999.0,76,-99.99,,,0.00,550,weatherlink.com 1.10,2013-07-21 12:49:00,
2013-07-21 09:04:00,75.3,67.0,29.91,NE,34,0.0,-999.0,74,-99.99,,,0.00,230,weatherlink.com 1.10,2013-07-21 13:04:00,
2013-07-21 09:19:00,76.0,66.0,29.90,NE,34,0.0,-999.0,72,-99.99,,,0.00,327,weatherlink.com 1.10,2013-07-21 13:19:00,
2013-07-21 09:34:00,76.7,67.0,29.90,NE,34,0.0,-999.0,72,-99.99,,,0.00,301,weatherlink.com 1.10,2013-07-21 13:34:00,
2013-07-21 09:49:00,77.0,66.0,29.90,NE,34,0.0,-999.0,69,-99.99,,,0.00,269,weatherlink.com 1.10,2013-07-21 13:49:00,
2013-07-21 10:04:00,76.7,66.0,29.90,NE,34,0.0,-999.0,69,-99.99,,,0.00,735,weatherlink.com 1.10,2013-07-21 14:04:00,
2013-07-21 10:19:00,78.4,67.0,29.90,NE,46,0.0,-999.0,68,-99.99,,,0.00,733,weatherlink.com 1.10,2013-07-21 14:19:00,
2013-07-21 10:34:00,79.6,66.0,29.90,NNW,334,1.0,-999.0,64,-99.99,,,0.00,758,weatherlink.com 1.10,2013-07-21 14:34:00,
2013-07-21 10:49:00,80.0,68.0,29.91,WNW,303,0.0,-999.0,67,-99.99,,,0.00,478,weatherlink.com 1.10,2013-07-21 14:49:00,
2013-07-21 11:04:00,80.7,67.0,29.91,WNW,303,0.0,-999.0,63,-99.99,,,0.00,457,weatherlink.com 1.10,2013-07-21 15:04:00,
2013-07-21 11:19:00,81.9,67.0,29.91,WNW,303,0.0,-999.0,60,-99.99,,,0.00,1129,weatherlink.com 1.10,2013-07-21 15:19:00,
2013-07-21 11:34:00,81.4,68.0,29.91,NW,305,0.0,-999.0,63,-99.99,,,0.00,378,weatherlink.com 1.10,2013-07-21 15:34:00,
2013-07-21 11:49:00,81.4,67.0,29.91,West,272,5.0,-999.0,61,-99.99,,,0.00,1106,weatherlink.com 1.10,2013-07-21 15:49:00,
2013-07-21 12:04:00,81.7,67.0,29.91,NW,319,1.0,-999.0,62,-99.99,,,0.00,1021,weatherlink.com 1.10,2013-07-21 16:04:00,
2013-07-21 12:19:00,83.5,67.0,29.91,South,179,0.0,-999.0,58,-99.99,,,0.00,974,weatherlink.com 1.10,2013-07-21 16:19:00,
2013-07-21 12:34:00,84.3,65.0,29.91,ENE,67,0.0,-999.0,52,-99.99,,,0.00,701,weatherlink.com 1.10,2013-07-21 16:34:00,
2013-07-21 12:49:00,84.5,65.0,29.91,NE,51,0.0,-999.0,52,-99.99,,,0.00,578,weatherlink.com 1.10,2013-07-21 16:49:00,
2013-07-21 13:04:00,84.3,65.0,29.91,NE,52,0.0,-999.0,52,-99.99,,,0.00,476,weatherlink.com 1.10,2013-07-21 17:04:00,
2013-07-21 13:19:00,84.0,66.0,29.91,NE,52,0.0,-999.0,54,-99.99,,,0.00,612,weatherlink.com 1.10,2013-07-21 17:19:00,
2013-07-21 13:34:00,84.4,64.0,29.91,WSW,257,0.0,-999.0,51,-99.99,,,0.00,649,weatherlink.com 1.10,2013-07-21 17:34:00,
2013-07-21 13:49:00,84.7,64.0,29.91,West,271,3.0,-999.0,50,-99.99,,,0.00,856,weatherlink.com 1.10,2013-07-21 17:49:00,
2013-07-21 14:04:00,85.6,66.0,29.91,West,267,0.0,-999.0,52,-99.99,,,0.00,979,weatherlink.com 1.10,2013-07-21 18:04:00,
2013-07-21 14:19:00,85.8,63.0,29.91,SE,126,0.0,-999.0,47,-99.99,,,0.00,949,weatherlink.com 1.10,2013-07-21 18:19:00,
2013-07-21 14:34:00,86.4,63.0,29.91,SSW,203,0.0,-999.0,46,-99.99,,,0.00,958,weatherlink.com 1.10,2013-07-21 18:34:00,
2013-07-21 14:49:00,86.0,62.0,29.90,East,95,1.0,-999.0,45,-99.99,,,0.00,946,weatherlink.com 1.10,2013-07-21 18:49:00,
2013-07-21 15:04:00,86.7,64.0,29.90,South,170,2.0,-999.0,46,-99.99,,,0.00,816,weatherlink.com 1.10,2013-07-21 19:04:00,
2013-07-21 15:19:00,87.2,64.0,29.90,NW,320,1.0,-999.0,46,-99.99,,,0.00,838,weatherlink.com 1.10,2013-07-21 19:19:00,
2013-07-21 15:34:00,86.7,64.0,29.90,NW,320,0.0,-999.0,46,-99.99,,,0.00,847,weatherlink.com 1.10,2013-07-21 19:34:00,
2013-07-21 15:50:00,87.8,65.0,29.90,SSW,196,1.0,-999.0,47,-99.99,,,0.00,795,weatherlink.com 1.10,2013-07-21 19:50:00,
2013-07-21 16:05:00,86.8,64.0,29.89,East,94,2.0,-999.0,47,-99.99,,,0.00,780,weatherlink.com 1.10,2013-07-21 20:05:00,
2013-07-21 16:20:00,85.8,64.0,29.89,South,169,2.0,-999.0,48,-99.99,,,0.00,141,weatherlink.com 1.10,2013-07-21 20:20:00,
2013-07-21 16:35:00,85.4,63.0,29.89,SE,133,1.0,-999.0,48,-99.99,,,0.00,675,weatherlink.com 1.10,2013-07-21 20:35:00,
2013-07-21 16:50:00,85.6,64.0,29.89,ESE,119,0.0,-999.0,49,-99.99,,,0.00,612,weatherlink.com 1.10,2013-07-21 20:50:00,
2013-07-21 17:05:00,87.2,64.0,29.88,South,191,0.0,-999.0,46,-99.99,,,0.00,555,weatherlink.com 1.10,2013-07-21 21:05:00,
2013-07-21 17:20:00,88.2,65.0,29.88,SSW,201,0.0,-999.0,46,-99.99,,,0.00,499,weatherlink.com 1.10,2013-07-21 21:20:00,
2013-07-21 17:35:00,86.8,65.0,29.88,SSW,194,4.0,-999.0,49,-99.99,,,0.00,457,weatherlink.com 1.10,2013-07-21 21:35:00,
2013-07-21 17:50:00,85.6,68.0,29.88,SW,236,0.0,-999.0,55,-99.99,,,0.00,396,weatherlink.com 1.10,2013-07-21 21:50:00,
2013-07-21 18:05:00,84.7,69.0,29.88,ESE,103,2.0,-999.0,59,-99.99,,,0.00,332,weatherlink.com 1.10,2013-07-21 22:05:00,
2013-07-21 18:20:00,83.0,69.0,29.89,SSE,153,4.0,-999.0,62,-99.99,,,0.00,171,weatherlink.com 1.10,2013-07-21 22:20:00,
2013-07-21 18:35:00,82.0,69.0,29.89,South,183,6.0,-999.0,64,-99.99,,,0.00,183,weatherlink.com 1.10,2013-07-21 22:35:00,
2013-07-21 18:50:00,81.4,68.0,29.89,SSW,205,0.0,-999.0,64,-99.99,,,0.00,70,weatherlink.com 1.10,2013-07-21 22:50:00,
2013-07-21 19:05:00,80.8,68.0,29.89,South,182,1.0,-999.0,65,-99.99,,,0.00,70,weatherlink.com 1.10,2013-07-21 23:05:00,
2013-07-21 19:20:00,80.2,68.0,29.89,South,184,1.0,-999.0,66,-99.99,,,0.00,76,weatherlink.com 1.10,2013-07-21 23:20:00,
2013-07-21 19:35:00,79.7,69.0,29.89,SSW,198,0.0,-999.0,69,-99.99,,,0.00,26,weatherlink.com 1.10,2013-07-21 23:35:00,
2013-07-21 19:50:00,79.1,69.0,29.90,SSW,196,0.0,-999.0,71,-99.99,,,0.00,18,weatherlink.com 1.10,2013-07-21 23:50:00,
2013-07-21 20:05:00,78.2,69.0,29.90,SSW,196,0.0,-999.0,73,-99.99,,,0.00,11,weatherlink.com 1.10,2013-07-22 00:05:00,
2013-07-21 20:20:00,77.5,70.0,29.89,SSW,196,0.0,-999.0,77,-99.99,,,0.00,0,weatherlink.com 1.10,2013-07-22 00:20:00,
2013-07-21 20:35:00,76.0,69.0,29.90,SSW,196,0.0,-999.0,79,-99.99,,,0.00,0,weatherlink.com 1.10,2013-07-22 00:35:00,
2013-07-21 20:50:00,75.1,69.0,29.91,SSW,196,0.0,-999.0,82,-99.99,,,0.00,0,weatherlink.com 1.10,2013-07-22 00:50:00,
2013-07-21 21:05:00,74.2,69.0,29.92,SSW,196,0.0,-999.0,84,-99.99,,,0.00,0,weatherlink.com 1.10,2013-07-22 01:05:00,
2013-07-21 21:20:00,73.6,70.0,29.93,SSW,196,0.0,-999.0,87,-99.99,,,0.00,0,weatherlink.com 1.10,2013-07-22 01:20:00,
2013-07-21 21:35:00,72.7,69.0,29.93,SSW,196,0.0,-999.0,88,-99.99,,,0.00,0,weatherlink.com 1.10,2013-07-22 01:35:00,
2013-07-21 21:50:00,72.3,69.0,29.94,SSW,196,0.0,-999.0,89,-99.99,,,0.00,0,weatherlink.com 1.10,2013-07-22 01:50:00,
2013-07-21 22:05:00,71.9,69.0,29.93,SSW,196,0.0,-999.0,90,-99.99,,,0.00,0,weatherlink.com 1.10,2013-07-22 02:05:00,
2013-07-21 22:20:00,71.6,69.0,29.93,SSW,196,0.0,-999.0,90,-99.99,,,0.00,0,weatherlink.com 1.10,2013-07-22 02:20:00,
2013-07-21 22:35:00,71.3,69.0,29.93,SSW,196,0.0,-999.0,91,-99.99,,,0.00,0,weatherlink.com 1.10,2013-07-22 02:35:00,
2013-07-21 22:50:00,71.1,69.0,29.94,SSW,196,0.0,-999.0,92,-99.99,,,0.00,0,weatherlink.com 1.10,2013-07-22 02:50:00,
2013-07-21 23:05:00,71.0,69.0,29.94,SSW,196,0.0,-999.0,92,-99.99,,,0.00,0,weatherlink.com 1.10,2013-07-22 03:05:00,
2013-07-21 23:20:00,70.6,68.0,29.94,SSW,196,0.0,-999.0,92,-99.99,,,0.00,0,weatherlink.com 1.10,2013-07-22 03:20:00,
2013-07-21 23:35:00,70.4,68.0,29.94,SSW,196,0.0,-999.0,93,-99.99,,,0.00,0,weatherlink.com 1.10,2013-07-22 03:35:00,
2013-07-21 23:50:00,70.1,68.0,29.94,SSW,196,0.0,-999.0,93,-99.99,,,0.00,0,weatherlink.com 1.10,2013-07-22 03:50:00,